Time;durP1;ratioP1;P1;durP2;ratioP2;P2;SDS_P1;SDS_P2;PMS_P1;PMS_P2;Temp;Humidity;BMP_temperature;BMP_pressure;BME280_temperature;BME280_humidity;BME280_pressure;Samples;Min_cycle;Max_cycle;Signal;HPM_P1;HPM_P2
2023/12/22 00:01:44;;;;;;;;;;;;;;;;;;;;;
2023/12/22 00:04:10;;;;;;;;;;;5.90;99.90;;;;;;4953716;28;19957;-74
2023/12/22 00:06:36;;;;;;;;;;;6.00;99.90;;;;;;4946373;28;19925;-74
2023/12/22 00:09:05;;;;;;;;;;;6.10;99.90;;;;;;4960377;28;19933;-73
2023/12/22 00:11:33;;;;;;;;;;;6.10;99.90;;;;;;4965361;28;20552;-73
2023/12/22 00:13:59;;;;;;;;;;;6.10;99.90;;;;;;4924410;28;19932;-72
2023/12/22 00:16:27;;;;;;;;;;;6.10;99.90;;;;;;4944888;28;20003;-71
2023/12/22 00:18:56;;;;;;;;;;;6.10;99.90;;;;;;4957132;28;21310;-72
2023/12/22 00:21:22;;;;;;;;;;;6.10;99.90;;;;;;4943730;28;20506;-71
2023/12/22 00:23:47;;;;;;;;;;;6.10;99.90;;;;;;4940008;28;19932;-73
2023/12/22 00:26:15;;;;;;;;;;;6.10;99.90;;;;;;4959858;28;19961;-70
2023/12/22 00:28:41;;;;;;;;;;;6.10;99.90;;;;;;4932631;28;19929;-69
2023/12/22 00:31:08;;;;;;;;;;;6.20;99.90;;;;;;4953866;28;20994;-70
2023/12/22 00:33:34;;;;;;;;;;;6.20;99.90;;;;;;4920183;28;19925;-70
2023/12/22 00:36:00;;;;;;;;;;;6.10;99.90;;;;;;4937665;28;19932;-70
2023/12/22 00:38:26;;;;;;;;;;;6.10;99.90;;;;;;4927233;28;20600;-70
2023/12/22 00:40:51;;;;;;;;;;;6.20;99.90;;;;;;4958908;28;20493;-70
2023/12/22 00:43:17;;;;;;;;;;;6.30;99.90;;;;;;4934105;28;19925;-70
2023/12/22 00:45:43;;;;;;;;;;;6.20;99.90;;;;;;4961010;28;20221;-72
2023/12/22 00:48:09;;;;;;;;;;;5.90;99.90;;;;;;4928782;28;19936;-73
2023/12/22 00:50:35;;;;;;;;;;;5.60;99.90;;;;;;4964851;28;19925;-73
2023/12/22 00:53:01;;;;;;;;;;;5.50;99.90;;;;;;4929524;28;20729;-74
2023/12/22 00:55:27;;;;;;;;;;;5.40;99.90;;;;;;4961549;28;20548;-72
2023/12/22 00:57:53;;;;;;;;;;;5.40;99.90;;;;;;4949606;28;19924;-72
2023/12/22 01:00:19;;;;;;;;;;;5.40;99.90;;;;;;4966327;28;19937;-71
2023/12/22 01:02:45;;;;;;;;;;;5.50;99.90;;;;;;4935844;28;20714;-73
2023/12/22 01:05:11;;;;;;;;;;;5.60;99.90;;;;;;4965342;28;20938;-71
2023/12/22 01:07:37;;;;;;;;;;;5.60;99.90;;;;;;4939114;28;19948;-72
2023/12/22 01:10:03;;;;;;;;;;;5.70;99.90;;;;;;4987046;28;20284;-72
2023/12/22 01:12:29;;;;;;;;;;;5.80;99.90;;;;;;4935619;28;19930;-72
2023/12/22 01:14:56;;;;;;;;;;;6.10;99.90;;;;;;4971576;28;19936;-73
2023/12/22 01:17:22;;;;;;;;;;;6.10;99.90;;;;;;4934418;28;19929;-71
2023/12/22 01:19:48;;;;;;;;;;;6.00;99.90;;;;;;4943802;28;19944;-71
2023/12/22 01:22:14;;;;;;;;;;;6.00;99.90;;;;;;4934650;28;21192;-75
2023/12/22 01:24:43;;;;;;;;;;;6.00;99.90;;;;;;4947411;28;20373;-73
2023/12/22 01:27:09;;;;;;;;;;;5.80;99.90;;;;;;4966394;28;20546;-73
2023/12/22 01:29:35;;;;;;;;;;;5.40;99.90;;;;;;4960302;28;19930;-71
2023/12/22 01:32:01;;;;;;;;;;;5.30;99.90;;;;;;4964778;28;19932;-71
2023/12/22 01:34:27;;;;;;;;;;;5.40;99.90;;;;;;4964337;28;19932;-70
2023/12/22 01:36:53;;;;;;;;;;;5.30;99.90;;;;;;4962888;28;19929;-70
2023/12/22 01:39:19;;;;;;;;;;;5.40;99.90;;;;;;4938857;28;19925;-70
2023/12/22 01:41:45;;;;;;;;;;;5.60;99.90;;;;;;4963623;28;19925;-70
2023/12/22 01:44:11;;;;;;;;;;;5.60;99.90;;;;;;4931579;28;19925;-70
2023/12/22 01:46:38;;;;;;;;;;;5.60;99.90;;;;;;4977932;28;19929;-71
2023/12/22 01:49:05;;;;;;;;;;;5.70;99.90;;;;;;4932068;28;19933;-70
2023/12/22 01:51:32;;;;;;;;;;;5.80;99.90;;;;;;4991339;28;20569;-69
2023/12/22 01:53:58;;;;;;;;;;;5.90;99.90;;;;;;4943053;28;19925;-70
2023/12/22 01:56:25;;;;;;;;;;;5.90;99.90;;;;;;4961635;28;19936;-71
2023/12/22 01:58:52;;;;;;;;;;;6.00;99.90;;;;;;4937556;28;20004;-70
2023/12/22 02:01:20;;;;;;;;;;;6.00;99.90;;;;;;4960228;28;19925;-70
2023/12/22 02:03:48;;;;;;;;;;;6.00;99.90;;;;;;4959614;28;19928;-70
2023/12/22 02:06:15;;;;;;;;;;;6.00;99.90;;;;;;4967624;28;19929;-70
2023/12/22 02:08:43;;;;;;;;;;;6.10;99.90;;;;;;4921043;28;19930;-71
2023/12/22 02:11:09;;;;;;;;;;;6.10;99.90;;;;;;4942354;28;19925;-70
2023/12/22 02:13:35;;;;;;;;;;;6.10;99.90;;;;;;4922571;28;19925;-71
2023/12/22 02:16:12;;;;;;;;;;;6.10;99.90;;;;;;4961957;28;21021;-70
2023/12/22 02:18:39;;;;;;;;;;;6.30;99.90;;;;;;4924183;28;20435;-70
2023/12/22 02:21:05;;;;;;;;;;;6.30;99.90;;;;;;4961105;28;19925;-69
2023/12/22 02:23:31;;;;;;;;;;;6.30;99.90;;;;;;4937949;28;19926;-73
2023/12/22 02:26:02;;;;;;;;;;;6.20;99.90;;;;;;4979907;28;19925;-72
2023/12/22 02:28:28;;;;;;;;;;;5.70;99.90;;;;;;4937109;28;19929;-74
2023/12/22 02:31:02;;;;;;;;;;;5.50;99.90;;;;;;4952137;28;20287;-70
2023/12/22 02:33:29;;;;;;;;;;;4.90;99.90;;;;;;4941385;28;19932;-74
2023/12/22 02:35:57;;;;;;;;;;;4.90;99.90;;;;;;4956788;28;19925;-73
2023/12/22 02:38:24;;;;;;;;;;;4.90;99.90;;;;;;4938542;28;19932;-72
2023/12/22 02:40:50;;;;;;;;;;;5.10;99.90;;;;;;4945622;28;20564;-74
2023/12/22 02:43:16;;;;;;;;;;;5.20;99.90;;;;;;4940201;28;19933;-74
2023/12/22 02:45:42;;;;;;;;;;;5.30;99.90;;;;;;4968404;28;20419;-72
2023/12/22 02:48:08;;;;;;;;;;;5.30;99.90;;;;;;4949887;28;19945;-73
2023/12/22 02:50:33;;;;;;;;;;;5.30;99.90;;;;;;4975135;28;19932;-75
2023/12/22 02:52:59;;;;;;;;;;;5.40;99.90;;;;;;4950631;28;20489;-72
2023/12/22 02:55:25;;;;;;;;;;;5.60;99.90;;;;;;4968778;28;19937;-74
2023/12/22 02:57:51;;;;;;;;;;;5.80;99.90;;;;;;4946562;28;19929;-73
2023/12/22 03:00:17;;;;;;;;;;;5.90;99.90;;;;;;4966502;28;19932;-73
2023/12/22 03:02:43;;;;;;;;;;;5.90;99.90;;;;;;4944904;28;20378;-72
2023/12/22 03:05:09;;;;;;;;;;;5.90;99.90;;;;;;4963072;28;20736;-72
2023/12/22 03:07:35;;;;;;;;;;;5.80;99.90;;;;;;4935105;28;19925;-73
2023/12/22 03:10:01;;;;;;;;;;;5.90;99.90;;;;;;4952854;28;19929;-74
2023/12/22 03:12:27;;;;;;;;;;;6.00;99.90;;;;;;4946195;28;19928;-72
2023/12/22 03:14:53;;;;;;;;;;;6.00;99.90;;;;;;4961211;28;20965;-71
2023/12/22 03:17:19;;;;;;;;;;;5.90;99.90;;;;;;4931122;28;19925;-74
2023/12/22 03:19:44;;;;;;;;;;;5.90;99.90;;;;;;4944485;28;19929;-72
2023/12/22 03:22:10;;;;;;;;;;;6.00;99.90;;;;;;4946364;28;19937;-71
2023/12/22 03:24:37;;;;;;;;;;;6.10;99.90;;;;;;4950887;28;19925;-71
2023/12/22 03:27:03;;;;;;;;;;;6.00;99.90;;;;;;4962549;28;19944;-71
2023/12/22 03:29:29;;;;;;;;;;;5.90;99.90;;;;;;4963722;28;20442;-71
2023/12/22 03:31:54;;;;;;;;;;;6.00;99.90;;;;;;4956650;28;19925;-70
2023/12/22 03:34:20;;;;;;;;;;;5.90;99.90;;;;;;4931142;28;19925;-70
2023/12/22 03:36:48;;;;;;;;;;;5.90;99.90;;;;;;4960514;28;19929;-70
2023/12/22 03:39:15;;;;;;;;;;;5.90;99.90;;;;;;4930526;28;20231;-69
2023/12/22 03:41:41;;;;;;;;;;;6.00;99.90;;;;;;4960802;28;19933;-70
2023/12/22 03:44:07;;;;;;;;;;;6.00;99.90;;;;;;4937370;28;19963;-71
2023/12/22 03:46:33;;;;;;;;;;;6.00;99.90;;;;;;4960765;28;19936;-71
2023/12/22 03:48:59;;;;;;;;;;;6.00;99.90;;;;;;4934735;28;19936;-71
2023/12/22 03:51:25;;;;;;;;;;;5.90;99.90;;;;;;4961056;28;19930;-71
2023/12/22 03:53:51;;;;;;;;;;;5.90;99.90;;;;;;4933690;28;19926;-71
2023/12/22 03:56:17;;;;;;;;;;;5.80;99.90;;;;;;4973959;28;20686;-71
2023/12/22 03:58:43;;;;;;;;;;;5.80;99.90;;;;;;4919078;28;19925;-71
2023/12/22 04:01:09;;;;;;;;;;;5.70;99.90;;;;;;4960167;28;19925;-71
2023/12/22 04:03:34;;;;;;;;;;;5.60;99.90;;;;;;4940217;28;21048;-71
2023/12/22 04:06:04;;;;;;;;;;;5.70;99.90;;;;;;4969193;28;19950;-71
2023/12/22 04:08:30;;;;;;;;;;;5.60;99.90;;;;;;4955631;28;19979;-71
2023/12/22 04:10:56;;;;;;;;;;;5.70;99.90;;;;;;4961739;28;20492;-71
2023/12/22 04:13:22;;;;;;;;;;;5.90;99.90;;;;;;4924611;28;20000;-72
2023/12/22 04:15:48;;;;;;;;;;;6.10;99.90;;;;;;4958368;28;19937;-71
2023/12/22 04:18:13;;;;;;;;;;;6.30;99.90;;;;;;4931708;28;19925;-69
2023/12/22 04:20:39;;;;;;;;;;;6.40;99.90;;;;;;4953317;28;20643;-71
2023/12/22 04:23:05;;;;;;;;;;;6.60;99.90;;;;;;4953275;28;19925;-72
2023/12/22 04:25:31;;;;;;;;;;;6.60;99.90;;;;;;4980676;28;20167;-72
2023/12/22 04:27:57;;;;;;;;;;;6.70;99.90;;;;;;4934465;28;19930;-71
2023/12/22 04:30:23;;;;;;;;;;;6.60;99.90;;;;;;4952562;28;19933;-71
2023/12/22 04:32:49;;;;;;;;;;;6.60;99.90;;;;;;4969478;28;20499;-71
2023/12/22 04:35:15;;;;;;;;;;;6.70;99.90;;;;;;4975071;28;19925;-71
2023/12/22 04:37:41;;;;;;;;;;;6.70;99.90;;;;;;4937177;28;20104;-71
2023/12/22 04:40:07;;;;;;;;;;;6.70;99.90;;;;;;4969242;28;19932;-69
2023/12/22 04:42:33;;;;;;;;;;;6.70;99.90;;;;;;4950389;28;19933;-70
2023/12/22 04:44:59;;;;;;;;;;;6.70;99.90;;;;;;4961769;28;19933;-70
2023/12/22 04:47:24;;;;;;;;;;;6.80;99.90;;;;;;4934971;28;20029;-71
2023/12/22 04:49:50;;;;;;;;;;;6.80;99.90;;;;;;4962590;28;19937;-71
2023/12/22 04:52:16;;;;;;;;;;;6.80;99.90;;;;;;4932722;28;20018;-72
2023/12/22 04:54:42;;;;;;;;;;;6.80;99.90;;;;;;4959124;28;19925;-70
2023/12/22 04:57:08;;;;;;;;;;;6.80;99.90;;;;;;4953176;28;19925;-72
2023/12/22 04:59:34;;;;;;;;;;;6.80;99.90;;;;;;4958062;28;20857;-71
2023/12/22 05:02:00;;;;;;;;;;;6.80;99.90;;;;;;4962658;28;19925;-72
2023/12/22 05:04:26;;;;;;;;;;;6.80;99.90;;;;;;4915803;28;21038;-71
2023/12/22 05:06:52;;;;;;;;;;;6.80;99.90;;;;;;4960040;28;19925;-71
2023/12/22 05:09:18;;;;;;;;;;;6.80;99.90;;;;;;4947254;28;19930;-71
2023/12/22 05:11:44;;;;;;;;;;;6.80;99.90;;;;;;4976872;28;20438;-72
2023/12/22 05:14:10;;;;;;;;;;;6.80;99.90;;;;;;4966476;28;19931;-72
2023/12/22 05:16:36;;;;;;;;;;;6.80;99.90;;;;;;4960657;28;19944;-71
2023/12/22 05:19:02;;;;;;;;;;;6.80;99.90;;;;;;4937038;28;20813;-72
2023/12/22 05:21:28;;;;;;;;;;;6.80;99.90;;;;;;4960003;28;19925;-71
2023/12/22 05:23:54;;;;;;;;;;;6.70;99.90;;;;;;4929165;28;19930;-71
2023/12/22 05:26:20;;;;;;;;;;;6.80;99.90;;;;;;4963781;28;21189;-72
2023/12/22 05:28:47;;;;;;;;;;;6.90;99.90;;;;;;4957051;28;19937;-69
2023/12/22 05:31:12;;;;;;;;;;;6.90;99.90;;;;;;4963701;28;20714;-71
2023/12/22 05:33:38;;;;;;;;;;;6.80;99.90;;;;;;4944142;28;19941;-70
2023/12/22 05:36:04;;;;;;;;;;;6.80;99.90;;;;;;4965803;28;19929;-73
2023/12/22 05:38:31;;;;;;;;;;;6.80;99.90;;;;;;4944542;28;19926;-70
2023/12/22 05:40:57;;;;;;;;;;;6.90;99.90;;;;;;4956187;28;19926;-69
2023/12/22 05:43:23;;;;;;;;;;;6.90;99.90;;;;;;4937771;28;20430;-70
2023/12/22 05:45:49;;;;;;;;;;;6.90;99.90;;;;;;4958197;28;19930;-70
2023/12/22 05:48:15;;;;;;;;;;;7.00;99.90;;;;;;4926105;28;19933;-71
2023/12/22 05:50:40;;;;;;;;;;;6.90;99.90;;;;;;4951596;28;20048;-71
2023/12/22 05:53:06;;;;;;;;;;;6.90;99.90;;;;;;4933218;28;19929;-71
2023/12/22 05:55:32;;;;;;;;;;;6.90;99.90;;;;;;4951390;28;19929;-71
2023/12/22 05:57:58;;;;;;;;;;;6.90;99.90;;;;;;4950500;28;19926;-70
2023/12/22 06:00:24;;;;;;;;;;;6.80;99.90;;;;;;4941699;28;19929;-70
2023/12/22 06:02:50;;;;;;;;;;;6.90;99.90;;;;;;4956418;28;19926;-69
2023/12/22 06:05:16;;;;;;;;;;;6.80;99.90;;;;;;4968758;28;21049;-68
2023/12/22 06:07:42;;;;;;;;;;;6.90;99.90;;;;;;4930890;28;20691;-68
2023/12/22 06:10:09;;;;;;;;;;;7.00;99.90;;;;;;4965514;28;19936;-68
2023/12/22 06:12:36;;;;;;;;;;;6.90;99.90;;;;;;4933728;28;19992;-68
2023/12/22 06:15:02;;;;;;;;;;;7.00;99.90;;;;;;4925522;28;19952;-67
2023/12/22 06:17:28;;;;;;;;;;;6.90;99.90;;;;;;4931834;28;19937;-68
2023/12/22 06:19:54;;;;;;;;;;;6.90;99.90;;;;;;4965075;28;19930;-67
2023/12/22 06:22:20;;;;;;;;;;;6.90;99.90;;;;;;4930680;28;20396;-69
2023/12/22 06:24:46;;;;;;;;;;;6.90;99.90;;;;;;4943957;28;19929;-68
2023/12/22 06:27:12;;;;;;;;;;;6.90;99.90;;;;;;4935933;28;19926;-69
2023/12/22 06:29:38;;;;;;;;;;;6.90;99.90;;;;;;4940135;28;19936;-69
2023/12/22 06:32:06;;;;;;;;;;;7.00;99.90;;;;;;4989091;28;19934;-69
2023/12/22 06:34:31;;;;;;;;;;;7.00;99.90;;;;;;4963726;28;19925;-68
2023/12/22 06:36:57;;;;;;;;;;;7.00;99.90;;;;;;4999017;28;19925;-68
2023/12/22 06:39:23;;;;;;;;;;;6.90;99.90;;;;;;4951690;28;19960;-69
2023/12/22 06:41:50;;;;;;;;;;;7.00;99.90;;;;;;4980375;28;19936;-69
2023/12/22 06:44:16;;;;;;;;;;;6.90;99.90;;;;;;4945760;28;19929;-69
2023/12/22 06:46:42;;;;;;;;;;;7.00;99.90;;;;;;4979937;28;19925;-69
2023/12/22 06:49:07;;;;;;;;;;;7.00;99.90;;;;;;4948403;28;19936;-69
2023/12/22 06:51:37;;;;;;;;;;;7.00;99.90;;;;;;4978370;28;19932;-69
2023/12/22 06:54:04;;;;;;;;;;;6.90;99.90;;;;;;4956004;28;19932;-68
2023/12/22 06:56:31;;;;;;;;;;;6.90;99.90;;;;;;4993802;28;19950;-68
2023/12/22 06:58:57;;;;;;;;;;;6.90;99.90;;;;;;4947629;28;19932;-68
2023/12/22 07:01:31;;;;;;;;;;;6.90;99.90;;;;;;4977582;28;19932;-69
2023/12/22 07:03:57;;;;;;;;;;;6.90;99.90;;;;;;4936762;28;19925;-68
2023/12/22 07:06:27;;;;;;;;;;;6.90;99.90;;;;;;4976521;28;19925;-68
2023/12/22 07:09:11;;;;;;;;;;;6.80;99.90;;;;;;4940851;28;21067;-68
2023/12/22 07:11:37;;;;;;;;;;;6.80;99.90;;;;;;4983117;28;19932;-68
2023/12/22 07:14:04;;;;;;;;;;;6.80;99.90;;;;;;4953328;28;19924;-69
2023/12/22 07:16:30;;;;;;;;;;;6.80;99.90;;;;;;4979013;28;19948;-68
2023/12/22 07:18:55;;;;;;;;;;;6.80;99.90;;;;;;4979959;28;19952;-69
2023/12/22 07:21:21;;;;;;;;;;;6.90;99.90;;;;;;4972622;28;19929;-68
2023/12/22 07:23:47;;;;;;;;;;;6.90;99.90;;;;;;4960522;28;19925;-67
2023/12/22 07:26:13;;;;;;;;;;;6.90;99.90;;;;;;4973133;28;19924;-67
2023/12/22 07:28:39;;;;;;;;;;;6.80;99.90;;;;;;4946397;28;19929;-68
2023/12/22 07:31:05;;;;;;;;;;;6.90;99.90;;;;;;4970037;28;19932;-67
2023/12/22 07:33:31;;;;;;;;;;;6.80;99.90;;;;;;4948721;28;19929;-67
2023/12/22 07:35:57;;;;;;;;;;;6.80;99.90;;;;;;4978040;28;20491;-68
2023/12/22 07:38:23;;;;;;;;;;;6.80;99.90;;;;;;4946169;28;19964;-68
2023/12/22 07:40:49;;;;;;;;;;;6.90;99.90;;;;;;4974667;28;20234;-68
2023/12/22 07:43:15;;;;;;;;;;;6.90;99.90;;;;;;4966712;28;19943;-68
2023/12/22 07:45:41;;;;;;;;;;;6.90;99.90;;;;;;4982033;28;19932;-68
2023/12/22 07:48:07;;;;;;;;;;;6.90;99.90;;;;;;4960202;28;19924;-68
2023/12/22 07:50:33;;;;;;;;;;;6.90;99.90;;;;;;4986269;28;20614;-69
2023/12/22 07:52:59;;;;;;;;;;;6.90;99.90;;;;;;4954182;28;19936;-68
2023/12/22 07:55:25;;;;;;;;;;;6.90;99.90;;;;;;4959861;28;19929;-68
2023/12/22 07:57:51;;;;;;;;;;;6.90;99.90;;;;;;4950446;28;19925;-69
2023/12/22 08:00:17;;;;;;;;;;;6.90;99.90;;;;;;4980311;28;19925;-69
2023/12/22 08:02:43;;;;;;;;;;;6.80;99.90;;;;;;4954858;28;19924;-69
2023/12/22 08:05:09;;;;;;;;;;;6.80;99.90;;;;;;4986265;28;19944;-68
2023/12/22 08:07:36;;;;;;;;;;;6.80;99.90;;;;;;4952152;28;19929;-69
2023/12/22 08:10:02;;;;;;;;;;;6.80;99.90;;;;;;4980262;28;20503;-68
2023/12/22 08:12:28;;;;;;;;;;;6.80;99.90;;;;;;4950145;28;19924;-68
2023/12/22 08:14:54;;;;;;;;;;;6.80;99.90;;;;;;4967572;28;19936;-69
2023/12/22 08:17:20;;;;;;;;;;;6.80;99.90;;;;;;4956853;28;19960;-68
2023/12/22 08:19:47;;;;;;;;;;;6.80;99.90;;;;;;5006549;28;20211;-68
2023/12/22 08:22:13;;;;;;;;;;;6.80;99.90;;;;;;4982173;28;20971;-69
2023/12/22 08:24:42;;;;;;;;;;;6.90;99.90;;;;;;4962588;28;19925;-69
2023/12/22 08:27:08;;;;;;;;;;;6.90;99.90;;;;;;4973789;28;19925;-69
2023/12/22 08:29:34;;;;;;;;;;;7.00;99.90;;;;;;4958758;28;19929;-70
2023/12/22 08:32:00;;;;;;;;;;;7.00;99.90;;;;;;4981395;28;19925;-69
2023/12/22 08:34:26;;;;;;;;;;;6.90;99.90;;;;;;4967201;28;20427;-70
2023/12/22 08:36:52;;;;;;;;;;;6.90;99.90;;;;;;4981864;28;19925;-70
2023/12/22 08:39:18;;;;;;;;;;;6.90;99.90;;;;;;4957393;28;19929;-73
2023/12/22 08:41:44;;;;;;;;;;;6.80;99.90;;;;;;5015513;28;21481;-73
2023/12/22 08:44:14;;;;;;;;;;;6.80;99.90;;;;;;4952888;28;19932;-73
2023/12/22 08:46:40;;;;;;;;;;;6.80;99.90;;;;;;4999013;28;20128;-71
2023/12/22 08:49:07;;;;;;;;;;;6.70;99.90;;;;;;4939332;28;19926;-72
2023/12/22 08:51:33;;;;;;;;;;;6.70;99.90;;;;;;4998058;28;19925;-73
2023/12/22 08:53:59;;;;;;;;;;;6.60;99.90;;;;;;4974527;28;19931;-72
2023/12/22 08:56:26;;;;;;;;;;;6.60;99.90;;;;;;4983903;28;20193;-71
2023/12/22 08:58:52;;;;;;;;;;;6.60;99.90;;;;;;4959630;28;20486;-72
2023/12/22 09:01:18;;;;;;;;;;;6.60;99.90;;;;;;4982225;28;19925;-71
2023/12/22 09:03:47;;;;;;;;;;;6.60;99.90;;;;;;4970022;28;19929;-71
2023/12/22 09:06:16;;;;;;;;;;;6.60;99.90;;;;;;4985729;28;19925;-67
2023/12/22 09:08:42;;;;;;;;;;;6.60;99.90;;;;;;4937442;28;19925;-70
2023/12/22 09:11:09;;;;;;;;;;;6.70;99.90;;;;;;4976649;28;20588;-69
2023/12/22 09:13:35;;;;;;;;;;;6.70;99.90;;;;;;4958774;28;20489;-69
2023/12/22 09:16:02;;;;;;;;;;;6.80;99.90;;;;;;4985582;28;20475;-70
2023/12/22 09:18:28;;;;;;;;;;;6.80;99.90;;;;;;4953267;28;19984;-70
2023/12/22 09:20:54;;;;;;;;;;;6.80;99.90;;;;;;4977572;28;19929;-70
2023/12/22 09:23:21;;;;;;;;;;;6.80;99.90;;;;;;4954775;28;19925;-69
2023/12/22 09:25:47;;;;;;;;;;;6.80;99.90;;;;;;4990012;28;19932;-69
2023/12/22 09:28:13;;;;;;;;;;;6.80;99.90;;;;;;4949569;28;20542;-69
2023/12/22 09:30:39;;;;;;;;;;;6.80;99.90;;;;;;4979527;28;19929;-69
2023/12/22 09:33:04;;;;;;;;;;;6.80;99.90;;;;;;4947741;28;20449;-69
2023/12/22 09:35:30;;;;;;;;;;;6.80;99.90;;;;;;4972360;28;19987;-69
2023/12/22 09:37:56;;;;;;;;;;;6.90;99.90;;;;;;4951518;28;20015;-68
2023/12/22 09:40:22;;;;;;;;;;;6.90;99.90;;;;;;4989926;28;19925;-69
2023/12/22 09:42:50;;;;;;;;;;;6.80;99.90;;;;;;4960063;28;19924;-69
2023/12/22 09:45:18;;;;;;;;;;;6.80;99.90;;;;;;4981327;28;19940;-69
2023/12/22 09:47:44;;;;;;;;;;;6.90;99.90;;;;;;4951769;28;19929;-69
2023/12/22 09:50:10;;;;;;;;;;;6.80;99.90;;;;;;4966380;28;19929;-69
2023/12/22 09:52:38;;;;;;;;;;;6.80;99.90;;;;;;4952386;28;19925;-69
2023/12/22 09:55:05;;;;;;;;;;;6.80;99.90;;;;;;4979533;28;19925;-68
2023/12/22 09:57:32;;;;;;;;;;;6.80;99.90;;;;;;4953889;28;19930;-68
2023/12/22 09:59:58;;;;;;;;;;;6.80;99.90;;;;;;4977566;28;20818;-68
2023/12/22 10:02:26;;;;;;;;;;;6.80;99.90;;;;;;4950779;28;19932;-68
2023/12/22 10:04:52;;;;;;;;;;;6.80;99.90;;;;;;4975675;28;19996;-68
2023/12/22 10:07:19;;;;;;;;;;;6.80;99.90;;;;;;4968885;28;20969;-67
2023/12/22 10:09:47;;;;;;;;;;;6.80;99.90;;;;;;4993795;28;19932;-67
2023/12/22 10:12:14;;;;;;;;;;;6.80;99.90;;;;;;4964203;28;21037;-68
2023/12/22 10:14:40;;;;;;;;;;;6.80;99.90;;;;;;4973137;28;19925;-67
2023/12/22 10:17:06;;;;;;;;;;;6.80;99.90;;;;;;4979619;28;20372;-68
2023/12/22 10:19:32;;;;;;;;;;;6.80;99.90;;;;;;4945409;28;19932;-68
2023/12/22 10:21:58;;;;;;;;;;;6.80;99.90;;;;;;4996373;28;20050;-68
2023/12/22 10:24:42;;;;;;;;;;;6.80;99.90;;;;;;4949403;28;19932;-69
2023/12/22 10:27:08;;;;;;;;;;;6.90;99.90;;;;;;4975702;28;20267;-67
2023/12/22 10:29:34;;;;;;;;;;;6.90;99.90;;;;;;4956470;28;19933;-68
2023/12/22 10:32:01;;;;;;;;;;;6.90;99.90;;;;;;4981854;28;19936;-68
2023/12/22 10:34:27;;;;;;;;;;;6.90;99.90;;;;;;4936092;28;19936;-67
2023/12/22 10:36:53;;;;;;;;;;;7.00;99.90;;;;;;4983442;28;20290;-68
2023/12/22 10:39:20;;;;;;;;;;;7.00;99.90;;;;;;4984399;28;19971;-68
2023/12/22 10:41:47;;;;;;;;;;;7.00;99.90;;;;;;4980468;28;19925;-68
2023/12/22 10:44:13;;;;;;;;;;;7.00;99.90;;;;;;4957257;28;20886;-68
2023/12/22 10:46:40;;;;;;;;;;;7.00;99.90;;;;;;4978660;28;19925;-68
2023/12/22 10:49:07;;;;;;;;;;;7.00;99.90;;;;;;4967460;28;21090;-68
2023/12/22 10:51:33;;;;;;;;;;;7.00;99.90;;;;;;4982339;28;19929;-67
2023/12/22 10:53:58;;;;;;;;;;;7.00;99.90;;;;;;4937436;28;19925;-68
2023/12/22 10:56:24;;;;;;;;;;;7.00;99.90;;;;;;4983883;28;19986;-69
2023/12/22 10:58:52;;;;;;;;;;;7.10;99.90;;;;;;4957952;28;19924;-68
2023/12/22 11:01:20;;;;;;;;;;;7.10;99.90;;;;;;4997075;28;19925;-68
2023/12/22 11:03:48;;;;;;;;;;;7.10;99.90;;;;;;4958781;28;20596;-69
2023/12/22 11:06:15;;;;;;;;;;;7.10;99.90;;;;;;4983264;28;19925;-68
2023/12/22 11:08:42;;;;;;;;;;;7.20;99.90;;;;;;4944251;28;19929;-67
2023/12/22 11:11:26;;;;;;;;;;;7.20;99.90;;;;;;4981310;28;19936;-69
2023/12/22 11:13:53;;;;;;;;;;;7.20;99.90;;;;;;4946962;28;19932;-69
2023/12/22 11:16:20;;;;;;;;;;;7.20;99.90;;;;;;4981013;28;19933;-69
2023/12/22 11:18:47;;;;;;;;;;;7.20;99.90;;;;;;4947198;28;20633;-69
2023/12/22 11:21:13;;;;;;;;;;;7.30;99.90;;;;;;4978352;28;19925;-68
2023/12/22 11:23:40;;;;;;;;;;;7.30;99.90;;;;;;4953913;28;19932;-68
2023/12/22 11:26:06;;;;;;;;;;;7.30;99.90;;;;;;4982546;28;19929;-68
2023/12/22 11:28:33;;;;;;;;;;;7.30;99.90;;;;;;4952418;28;20015;-68
2023/12/22 11:30:59;;;;;;;;;;;7.40;99.90;;;;;;4977653;28;19951;-69
2023/12/22 11:33:25;;;;;;;;;;;7.40;99.90;;;;;;4952232;28;19936;-68
2023/12/22 11:35:53;;;;;;;;;;;7.40;99.90;;;;;;4978196;28;20039;-67
2023/12/22 11:38:18;;;;;;;;;;;7.40;99.90;;;;;;4961973;28;19932;-68
2023/12/22 11:40:45;;;;;;;;;;;7.40;99.90;;;;;;4979322;28;19925;-68
2023/12/22 11:43:11;;;;;;;;;;;7.50;99.90;;;;;;4951248;28;19937;-69
2023/12/22 11:45:37;;;;;;;;;;;7.50;99.90;;;;;;4968452;28;19936;-68
2023/12/22 11:48:07;;;;;;;;;;;7.50;99.90;;;;;;4953256;28;20541;-68
2023/12/22 11:50:33;;;;;;;;;;;7.50;99.90;;;;;;4981041;28;19956;-67
2023/12/22 11:53:18;;;;;;;;;;;7.50;99.90;;;;;;4949418;28;21161;-67
2023/12/22 11:56:08;;;;;;;;;;;7.50;99.90;;;;;;4980712;28;20493;-68
2023/12/22 11:58:37;;;;;;;;;;;7.50;99.90;;;;;;4955605;28;19957;-67
2023/12/22 12:01:13;;;;;;;;;;;7.50;99.90;;;;;;4996753;28;19925;-67
2023/12/22 12:03:47;;;;;;;;;;;7.50;99.90;;;;;;4957738;28;19925;-67
2023/12/22 12:06:13;;;;;;;;;;;7.50;99.90;;;;;;4977072;28;20035;-67
2023/12/22 12:08:39;;;;;;;;;;;7.50;99.90;;;;;;4973768;28;19924;-69
2023/12/22 12:11:06;;;;;;;;;;;7.50;99.90;;;;;;4985597;28;19933;-67
2023/12/22 12:13:33;;;;;;;;;;;7.50;99.90;;;;;;4955558;28;20471;-67
2023/12/22 12:16:01;;;;;;;;;;;7.50;99.90;;;;;;4981247;28;19929;-67
2023/12/22 12:18:27;;;;;;;;;;;7.60;99.90;;;;;;4951885;28;19925;-68
2023/12/22 12:20:53;;;;;;;;;;;7.60;99.90;;;;;;4980198;28;19932;-68
2023/12/22 12:23:20;;;;;;;;;;;7.60;99.90;;;;;;4949469;28;19929;-67
2023/12/22 12:25:47;;;;;;;;;;;7.60;99.90;;;;;;4979046;28;20542;-67
2023/12/22 12:28:13;;;;;;;;;;;7.60;99.90;;;;;;4952445;28;20582;-68
2023/12/22 12:30:41;;;;;;;;;;;7.60;99.90;;;;;;4976667;28;20172;-67
2023/12/22 12:33:10;;;;;;;;;;;7.60;99.90;;;;;;4954098;28;20458;-67
2023/12/22 12:35:40;;;;;;;;;;;7.60;99.90;;;;;;4987414;28;19929;-69
2023/12/22 12:38:06;;;;;;;;;;;7.70;99.90;;;;;;4956075;28;19929;-67
2023/12/22 12:40:34;;;;;;;;;;;7.60;99.90;;;;;;4982574;28;20007;-68
2023/12/22 12:43:01;;;;;;;;;;;7.70;99.90;;;;;;4960271;28;19925;-68
2023/12/22 12:45:27;;;;;;;;;;;7.60;99.90;;;;;;4970708;28;19929;-67
2023/12/22 12:47:59;;;;;;;;;;;7.60;99.90;;;;;;4956020;28;20310;-67
2023/12/22 12:50:25;;;;;;;;;;;7.60;99.90;;;;;;4990134;28;19933;-68
2023/12/22 12:52:53;;;;;;;;;;;7.60;99.90;;;;;;4959717;28;19989;-70
2023/12/22 12:55:22;;;;;;;;;;;7.60;99.90;;;;;;4990668;28;19952;-69
2023/12/22 12:57:55;;;;;;;;;;;7.60;99.90;;;;;;4956125;28;20647;-69
2023/12/22 13:00:28;;;;;;;;;;;7.60;99.90;;;;;;4970642;28;19925;-68
2023/12/22 13:02:57;;;;;;;;;;;7.50;99.90;;;;;;4962791;28;19964;-69
2023/12/22 13:05:24;;;;;;;;;;;7.50;99.90;;;;;;4983653;28;19934;-68
2023/12/22 13:07:50;;;;;;;;;;;7.50;99.90;;;;;;4952763;28;20608;-69
2023/12/22 13:10:23;;;;;;;;;;;7.50;99.90;;;;;;4973694;28;20957;-69
2023/12/22 13:12:55;;;;;;;;;;;7.40;99.90;;;;;;4949211;28;19929;-70
2023/12/22 13:15:21;;;;;;;;;;;7.40;99.90;;;;;;4993258;28;20611;-69
2023/12/22 13:17:47;;;;;;;;;;;7.40;99.90;;;;;;4965264;28;20568;-69
2023/12/22 13:20:13;;;;;;;;;;;7.30;99.90;;;;;;4990661;28;20659;-69
2023/12/22 13:22:40;;;;;;;;;;;7.40;99.90;;;;;;4942818;28;19944;-70
2023/12/22 13:25:06;;;;;;;;;;;7.30;99.90;;;;;;4977047;28;19932;-69
2023/12/22 13:27:43;;;;;;;;;;;7.30;99.90;;;;;;4953391;28;19925;-69
2023/12/22 13:30:09;;;;;;;;;;;7.40;99.90;;;;;;4986051;28;19929;-70
2023/12/22 13:32:35;;;;;;;;;;;7.40;99.90;;;;;;4958380;28;19924;-70
2023/12/22 13:35:01;;;;;;;;;;;7.40;99.90;;;;;;5002543;28;19929;-71
2023/12/22 13:37:30;;;;;;;;;;;7.30;99.90;;;;;;4947817;28;20208;-71
2023/12/22 13:39:57;;;;;;;;;;;7.30;99.90;;;;;;4976602;28;19964;-70
2023/12/22 13:42:24;;;;;;;;;;;7.30;99.90;;;;;;4950019;28;19951;-70
2023/12/22 13:44:50;;;;;;;;;;;7.30;99.90;;;;;;4980223;28;19956;-71
2023/12/22 13:47:16;;;;;;;;;;;7.30;99.90;;;;;;4955033;28;20146;-71
2023/12/22 13:49:43;;;;;;;;;;;7.30;99.90;;;;;;4966665;28;19929;-73
2023/12/22 13:52:24;;;;;;;;;;;7.20;99.90;;;;;;4983302;28;19936;-72
2023/12/22 13:54:49;;;;;;;;;;;7.20;99.90;;;;;;4951094;28;19929;-73
2023/12/22 13:57:24;;;;;;;;;;;7.20;99.90;;;;;;4951702;28;19932;-73
2023/12/22 13:59:52;;;;;;;;;;;7.20;99.90;;;;;;5006298;28;20537;-73
2023/12/22 14:02:21;;;;;;;;;;;7.20;99.90;;;;;;4947688;28;19925;-74
2023/12/22 14:04:48;;;;;;;;;;;7.20;99.90;;;;;;4970567;28;19925;-73
2023/12/22 14:07:14;;;;;;;;;;;7.20;99.90;;;;;;4968092;28;19940;-72
2023/12/22 14:09:40;;;;;;;;;;;7.20;99.90;;;;;;4963314;28;20296;-73
2023/12/22 14:12:06;;;;;;;;;;;7.10;99.90;;;;;;4976908;28;19940;-72
2023/12/22 14:14:32;;;;;;;;;;;7.10;99.90;;;;;;4955427;28;19925;-72
2023/12/22 14:16:58;;;;;;;;;;;7.10;99.90;;;;;;4979269;28;19992;-73
2023/12/22 14:19:25;;;;;;;;;;;7.10;99.90;;;;;;4937092;28;20435;-72
2023/12/22 14:21:50;;;;;;;;;;;7.10;99.90;;;;;;4974478;28;19925;-73
2023/12/22 14:24:16;;;;;;;;;;;7.10;99.90;;;;;;4929685;28;19936;-72
2023/12/22 14:26:55;;;;;;;;;;;7.10;99.90;;;;;;4979179;28;20423;-72
2023/12/22 14:29:24;;;;;;;;;;;7.10;99.90;;;;;;4955016;28;19924;-73